sensor_id;sensor_type;location;lat;lon;timestamp;pressure;altitude;pressure_sealevel;temperature
34961;BMP280;30789;52.030;7.110;2022-10-31T00:00:44;101179.81;;;14.00
34961;BMP280;30789;52.030;7.110;2022-10-31T00:03:10;101192.09;;;13.96
34961;BMP280;30789;52.030;7.110;2022-10-31T00:05:40;101189.31;;;13.73
34961;BMP280;30789;52.030;7.110;2022-10-31T00:08:08;101190.75;;;13.83
34961;BMP280;30789;52.030;7.110;2022-10-31T00:10:37;101191.13;;;13.71
34961;BMP280;30789;52.030;7.110;2022-10-31T00:13:04;101193.56;;;13.75
34961;BMP280;30789;52.030;7.110;2022-10-31T00:15:32;101190.88;;;13.78
34961;BMP280;30789;52.030;7.110;2022-10-31T00:17:58;101199.28;;;13.59
34961;BMP280;30789;52.030;7.110;2022-10-31T00:20:25;101196.56;;;13.62
34961;BMP280;30789;52.030;7.110;2022-10-31T00:22:51;101192.34;;;13.59
34961;BMP280;30789;52.030;7.110;2022-10-31T00:25:19;101192.63;;;13.49
34961;BMP280;30789;52.030;7.110;2022-10-31T00:27:46;101198.75;;;13.48
34961;BMP280;30789;52.030;7.110;2022-10-31T00:30:12;101196.19;;;13.46
34961;BMP280;30789;52.030;7.110;2022-10-31T00:32:38;101191.84;;;13.47
34961;BMP280;30789;52.030;7.110;2022-10-31T00:35:05;101190.88;;;13.49
34961;BMP280;30789;52.030;7.110;2022-10-31T00:37:32;101189.81;;;13.56
34961;BMP280;30789;52.030;7.110;2022-10-31T00:39:58;101191.84;;;13.47
34961;BMP280;30789;52.030;7.110;2022-10-31T00:42:26;101195.69;;;13.33
34961;BMP280;30789;52.030;7.110;2022-10-31T00:44:53;101195.03;;;13.25
34961;BMP280;30789;52.030;7.110;2022-10-31T00:47:19;101197.44;;;13.31
34961;BMP280;30789;52.030;7.110;2022-10-31T00:49:46;101195.69;;;13.33
34961;BMP280;30789;52.030;7.110;2022-10-31T00:52:12;101190.47;;;13.33
34961;BMP280;30789;52.030;7.110;2022-10-31T00:54:38;101192.09;;;13.37
34961;BMP280;30789;52.030;7.110;2022-10-31T00:57:05;101203.53;;;13.30
34961;BMP280;30789;52.030;7.110;2022-10-31T00:59:33;101197.63;;;13.25
34961;BMP280;30789;52.030;7.110;2022-10-31T01:01:59;101202.94;;;13.21
34961;BMP280;30789;52.030;7.110;2022-10-31T01:04:25;101198.31;;;13.32
34961;BMP280;30789;52.030;7.110;2022-10-31T01:06:52;101192.47;;;13.24
34961;BMP280;30789;52.030;7.110;2022-10-31T01:09:18;101200.53;;;13.15
34961;BMP280;30789;52.030;7.110;2022-10-31T01:11:45;101194.66;;;13.07
34961;BMP280;30789;52.030;7.110;2022-10-31T01:14:11;101192.91;;;13.07
34961;BMP280;30789;52.030;7.110;2022-10-31T01:16:39;101203.44;;;13.01
34961;BMP280;30789;52.030;7.110;2022-10-31T01:19:05;101207.53;;;13.11
34961;BMP280;30789;52.030;7.110;2022-10-31T01:21:32;101207.53;;;13.11
34961;BMP280;30789;52.030;7.110;2022-10-31T01:23:59;101197.13;;;13.11
34961;BMP280;30789;52.030;7.110;2022-10-31T01:26:28;101196.56;;;13.00
34961;BMP280;30789;52.030;7.110;2022-10-31T01:28:57;101198.97;;;13.06
34961;BMP280;30789;52.030;7.110;2022-10-31T01:31:25;101185.38;;;12.98
34961;BMP280;30789;52.030;7.110;2022-10-31T01:33:53;101199.22;;;12.98
34961;BMP280;30789;52.030;7.110;2022-10-31T01:36:22;60481.56;;;-143.35
34961;BMP280;30789;52.030;7.110;2022-10-31T01:38:50;60481.56;;;-143.35
34961;BMP280;30789;52.030;7.110;2022-10-31T01:41:19;60481.56;;;-143.35
34961;BMP280;30789;52.030;7.110;2022-10-31T01:43:49;60481.56;;;-143.35
34961;BMP280;30789;52.030;7.110;2022-10-31T01:46:19;60481.56;;;-143.35
34961;BMP280;30789;52.030;7.110;2022-10-31T01:48:47;60481.56;;;-143.35
34961;BMP280;30789;52.030;7.110;2022-10-31T01:51:15;60481.56;;;-143.35
34961;BMP280;30789;52.030;7.110;2022-10-31T01:53:45;60481.56;;;-143.35
34961;BMP280;30789;52.030;7.110;2022-10-31T01:56:13;60481.56;;;-143.35
34961;BMP280;30789;52.030;7.110;2022-10-31T01:58:42;60481.56;;;-143.35
34961;BMP280;30789;52.030;7.110;2022-10-31T02:01:09;60481.56;;;-143.35
34961;BMP280;30789;52.030;7.110;2022-10-31T02:03:36;60481.56;;;-143.35
34961;BMP280;30789;52.030;7.110;2022-10-31T02:06:04;60481.56;;;-143.35
34961;BMP280;30789;52.030;7.110;2022-10-31T02:08:34;60481.56;;;-143.35
34961;BMP280;30789;52.030;7.110;2022-10-31T02:11:02;60481.56;;;-143.35
34961;BMP280;30789;52.030;7.110;2022-10-31T02:13:29;60481.56;;;-143.35
34961;BMP280;30789;52.030;7.110;2022-10-31T02:15:57;60481.56;;;-143.35
34961;BMP280;30789;52.030;7.110;2022-10-31T02:18:26;60481.56;;;-143.35
34961;BMP280;30789;52.030;7.110;2022-10-31T02:20:58;60481.56;;;-143.35
34961;BMP280;30789;52.030;7.110;2022-10-31T02:24:00;60481.56;;;-143.35
34961;BMP280;30789;52.030;7.110;2022-10-31T02:29:48;60481.56;;;-143.35
34961;BMP280;30789;52.030;7.110;2022-10-31T02:32:25;60481.56;;;-143.35
34961;BMP280;30789;52.030;7.110;2022-10-31T02:34:58;60481.56;;;-143.35
34961;BMP280;30789;52.030;7.110;2022-10-31T02:37:34;60481.56;;;-143.35
34961;BMP280;30789;52.030;7.110;2022-10-31T02:40:07;60481.56;;;-143.35
34961;BMP280;30789;52.030;7.110;2022-10-31T02:42:43;60481.56;;;-143.35
34961;BMP280;30789;52.030;7.110;2022-10-31T02:45:17;60481.56;;;-143.35
34961;BMP280;30789;52.030;7.110;2022-10-31T02:47:48;60481.56;;;-143.35
34961;BMP280;30789;52.030;7.110;2022-10-31T02:50:19;60481.56;;;-143.35
34961;BMP280;30789;52.030;7.110;2022-10-31T02:52:50;60481.56;;;-143.35
34961;BMP280;30789;52.030;7.110;2022-10-31T02:55:51;60481.56;;;-143.35
34961;BMP280;30789;52.030;7.110;2022-10-31T02:58:22;60481.56;;;-143.35
34961;BMP280;30789;52.030;7.110;2022-10-31T03:01:02;60481.56;;;-143.35
34961;BMP280;30789;52.030;7.110;2022-10-31T03:03:36;60481.56;;;-143.35
34961;BMP280;30789;52.030;7.110;2022-10-31T03:06:08;60481.56;;;-143.35
34961;BMP280;30789;52.030;7.110;2022-10-31T03:08:42;60481.56;;;-143.35
34961;BMP280;30789;52.030;7.110;2022-10-31T03:11:17;60481.56;;;-143.35
34961;BMP280;30789;52.030;7.110;2022-10-31T03:13:50;60481.56;;;-143.35
34961;BMP280;30789;52.030;7.110;2022-10-31T03:16:23;60481.56;;;-143.35
34961;BMP280;30789;52.030;7.110;2022-10-31T03:18:59;60481.56;;;-143.35
34961;BMP280;30789;52.030;7.110;2022-10-31T03:21:29;60481.56;;;-143.35
34961;BMP280;30789;52.030;7.110;2022-10-31T03:23:58;60481.56;;;-143.35
34961;BMP280;30789;52.030;7.110;2022-10-31T03:26:26;60481.56;;;-143.35
34961;BMP280;30789;52.030;7.110;2022-10-31T03:28:57;60481.56;;;-143.35
34961;BMP280;30789;52.030;7.110;2022-10-31T03:31:27;60481.56;;;-143.35
34961;BMP280;30789;52.030;7.110;2022-10-31T03:33:58;60481.56;;;-143.35
34961;BMP280;30789;52.030;7.110;2022-10-31T03:36:26;60481.56;;;-143.35
34961;BMP280;30789;52.030;7.110;2022-10-31T03:38:55;60481.56;;;-143.35
34961;BMP280;30789;52.030;7.110;2022-10-31T03:41:26;60481.56;;;-143.35
34961;BMP280;30789;52.030;7.110;2022-10-31T03:43:57;60481.56;;;-143.35
34961;BMP280;30789;52.030;7.110;2022-10-31T03:46:25;60481.56;;;-143.35
34961;BMP280;30789;52.030;7.110;2022-10-31T03:48:53;60481.56;;;-143.35
34961;BMP280;30789;52.030;7.110;2022-10-31T03:51:23;60481.56;;;-143.35
34961;BMP280;30789;52.030;7.110;2022-10-31T03:53:55;60481.56;;;-143.35
34961;BMP280;30789;52.030;7.110;2022-10-31T03:56:28;60481.56;;;-143.35
34961;BMP280;30789;52.030;7.110;2022-10-31T03:58:59;60481.56;;;-143.35
34961;BMP280;30789;52.030;7.110;2022-10-31T04:01:29;60481.56;;;-143.35
34961;BMP280;30789;52.030;7.110;2022-10-31T04:03:57;60481.56;;;-143.35
34961;BMP280;30789;52.030;7.110;2022-10-31T04:06:25;60481.56;;;-143.35
34961;BMP280;30789;52.030;7.110;2022-10-31T04:08:54;60481.56;;;-143.35
34961;BMP280;30789;52.030;7.110;2022-10-31T04:11:25;60481.56;;;-143.35
34961;BMP280;30789;52.030;7.110;2022-10-31T04:13:54;60481.56;;;-143.35
34961;BMP280;30789;52.030;7.110;2022-10-31T04:16:23;60481.56;;;-143.35
34961;BMP280;30789;52.030;7.110;2022-10-31T04:18:51;60481.56;;;-143.35
34961;BMP280;30789;52.030;7.110;2022-10-31T04:21:17;60481.56;;;-143.35
34961;BMP280;30789;52.030;7.110;2022-10-31T04:23:45;60481.56;;;-143.35
34961;BMP280;30789;52.030;7.110;2022-10-31T04:26:12;60481.56;;;-143.35
34961;BMP280;30789;52.030;7.110;2022-10-31T04:28:39;60481.56;;;-143.35
34961;BMP280;30789;52.030;7.110;2022-10-31T04:31:05;60481.56;;;-143.35
34961;BMP280;30789;52.030;7.110;2022-10-31T04:33:32;60481.56;;;-143.35
34961;BMP280;30789;52.030;7.110;2022-10-31T04:35:58;60481.56;;;-143.35
34961;BMP280;30789;52.030;7.110;2022-10-31T04:38:24;60481.56;;;-143.35
34961;BMP280;30789;52.030;7.110;2022-10-31T04:40:52;60481.56;;;-143.35
34961;BMP280;30789;52.030;7.110;2022-10-31T04:43:19;60481.56;;;-143.35
34961;BMP280;30789;52.030;7.110;2022-10-31T04:45:45;60481.56;;;-143.35
34961;BMP280;30789;52.030;7.110;2022-10-31T04:48:11;60481.56;;;-143.35
34961;BMP280;30789;52.030;7.110;2022-10-31T04:50:38;60481.56;;;-143.35
34961;BMP280;30789;52.030;7.110;2022-10-31T04:53:04;60481.56;;;-143.35
34961;BMP280;30789;52.030;7.110;2022-10-31T04:55:31;60481.56;;;-143.35
34961;BMP280;30789;52.030;7.110;2022-10-31T04:57:59;60481.56;;;-143.35
34961;BMP280;30789;52.030;7.110;2022-10-31T05:00:25;60481.56;;;-143.35
34961;BMP280;30789;52.030;7.110;2022-10-31T05:02:53;60481.56;;;-143.35
34961;BMP280;30789;52.030;7.110;2022-10-31T05:05:23;60481.56;;;-143.35
34961;BMP280;30789;52.030;7.110;2022-10-31T05:07:50;60481.56;;;-143.35
34961;BMP280;30789;52.030;7.110;2022-10-31T05:10:18;60481.56;;;-143.35
34961;BMP280;30789;52.030;7.110;2022-10-31T05:12:46;60481.56;;;-143.35
34961;BMP280;30789;52.030;7.110;2022-10-31T05:15:15;60481.56;;;-143.35
34961;BMP280;30789;52.030;7.110;2022-10-31T05:17:42;60481.56;;;-143.35
34961;BMP280;30789;52.030;7.110;2022-10-31T05:20:09;60481.56;;;-143.35
34961;BMP280;30789;52.030;7.110;2022-10-31T05:22:36;60481.56;;;-143.35
34961;BMP280;30789;52.030;7.110;2022-10-31T05:25:03;60481.56;;;-143.35
34961;BMP280;30789;52.030;7.110;2022-10-31T05:27:29;60481.56;;;-143.35
34961;BMP280;30789;52.030;7.110;2022-10-31T05:29:56;60481.56;;;-143.35
34961;BMP280;30789;52.030;7.110;2022-10-31T05:32:24;60481.56;;;-143.35
34961;BMP280;30789;52.030;7.110;2022-10-31T05:34:50;60481.56;;;-143.35
34961;BMP280;30789;52.030;7.110;2022-10-31T05:37:16;60481.56;;;-143.35
34961;BMP280;30789;52.030;7.110;2022-10-31T05:39:43;60481.56;;;-143.35
34961;BMP280;30789;52.030;7.110;2022-10-31T05:42:09;60481.56;;;-143.35
34961;BMP280;30789;52.030;7.110;2022-10-31T05:44:36;60481.56;;;-143.35
34961;BMP280;30789;52.030;7.110;2022-10-31T05:47:02;60481.56;;;-143.35
34961;BMP280;30789;52.030;7.110;2022-10-31T05:49:30;60481.56;;;-143.35
34961;BMP280;30789;52.030;7.110;2022-10-31T05:51:56;60481.56;;;-143.35
34961;BMP280;30789;52.030;7.110;2022-10-31T05:54:23;60481.56;;;-143.35
34961;BMP280;30789;52.030;7.110;2022-10-31T05:56:49;60481.56;;;-143.35
34961;BMP280;30789;52.030;7.110;2022-10-31T05:59:16;60481.56;;;-143.35
34961;BMP280;30789;52.030;7.110;2022-10-31T06:01:42;60481.56;;;-143.35
34961;BMP280;30789;52.030;7.110;2022-10-31T06:04:08;60481.56;;;-143.35
34961;BMP280;30789;52.030;7.110;2022-10-31T06:06:36;60481.56;;;-143.35
34961;BMP280;30789;52.030;7.110;2022-10-31T06:09:03;60481.56;;;-143.35
34961;BMP280;30789;52.030;7.110;2022-10-31T06:11:29;60481.56;;;-143.35
34961;BMP280;30789;52.030;7.110;2022-10-31T06:13:57;60481.56;;;-143.35
34961;BMP280;30789;52.030;7.110;2022-10-31T06:16:23;60481.56;;;-143.35
34961;BMP280;30789;52.030;7.110;2022-10-31T06:18:50;60481.56;;;-143.35
34961;BMP280;30789;52.030;7.110;2022-10-31T06:21:16;60481.56;;;-143.35
34961;BMP280;30789;52.030;7.110;2022-10-31T06:23:44;60481.56;;;-143.35
34961;BMP280;30789;52.030;7.110;2022-10-31T06:26:10;60481.56;;;-143.35
34961;BMP280;30789;52.030;7.110;2022-10-31T06:28:37;60481.56;;;-143.35
34961;BMP280;30789;52.030;7.110;2022-10-31T06:31:03;60481.56;;;-143.35
34961;BMP280;30789;52.030;7.110;2022-10-31T06:33:30;60481.56;;;-143.35
34961;BMP280;30789;52.030;7.110;2022-10-31T06:35:56;60481.56;;;-143.35
34961;BMP280;30789;52.030;7.110;2022-10-31T06:38:22;60481.56;;;-143.35
34961;BMP280;30789;52.030;7.110;2022-10-31T06:40:50;60481.56;;;-143.35
34961;BMP280;30789;52.030;7.110;2022-10-31T06:43:17;60481.56;;;-143.35
34961;BMP280;30789;52.030;7.110;2022-10-31T06:45:43;60481.56;;;-143.35
34961;BMP280;30789;52.030;7.110;2022-10-31T06:48:09;60481.56;;;-143.35
34961;BMP280;30789;52.030;7.110;2022-10-31T06:50:36;60481.56;;;-143.35
34961;BMP280;30789;52.030;7.110;2022-10-31T06:53:03;60481.56;;;-143.35
34961;BMP280;30789;52.030;7.110;2022-10-31T06:55:29;60481.56;;;-143.35
34961;BMP280;30789;52.030;7.110;2022-10-31T06:57:59;60481.56;;;-143.35
34961;BMP280;30789;52.030;7.110;2022-10-31T07:00:28;60481.56;;;-143.35
34961;BMP280;30789;52.030;7.110;2022-10-31T07:02:56;60481.56;;;-143.35
34961;BMP280;30789;52.030;7.110;2022-10-31T07:05:23;60481.56;;;-143.35
34961;BMP280;30789;52.030;7.110;2022-10-31T07:07:53;60481.56;;;-143.35
34961;BMP280;30789;52.030;7.110;2022-10-31T07:10:21;60481.56;;;-143.35
34961;BMP280;30789;52.030;7.110;2022-10-31T07:12:47;60481.56;;;-143.35
34961;BMP280;30789;52.030;7.110;2022-10-31T07:15:15;60481.56;;;-143.35
34961;BMP280;30789;52.030;7.110;2022-10-31T07:17:42;60481.56;;;-143.35
34961;BMP280;30789;52.030;7.110;2022-10-31T07:20:09;60481.56;;;-143.35
34961;BMP280;30789;52.030;7.110;2022-10-31T07:22:36;60481.56;;;-143.35
34961;BMP280;30789;52.030;7.110;2022-10-31T07:25:04;60481.56;;;-143.35
34961;BMP280;30789;52.030;7.110;2022-10-31T07:27:35;60481.56;;;-143.35
34961;BMP280;30789;52.030;7.110;2022-10-31T07:30:02;60481.56;;;-143.35
34961;BMP280;30789;52.030;7.110;2022-10-31T07:32:38;60481.56;;;-143.35
34961;BMP280;30789;52.030;7.110;2022-10-31T07:35:05;60481.56;;;-143.35
34961;BMP280;30789;52.030;7.110;2022-10-31T07:37:32;60481.56;;;-143.35
34961;BMP280;30789;52.030;7.110;2022-10-31T07:39:59;60481.56;;;-143.35
34961;BMP280;30789;52.030;7.110;2022-10-31T07:42:26;60481.56;;;-143.35
34961;BMP280;30789;52.030;7.110;2022-10-31T07:44:53;60481.56;;;-143.35
34961;BMP280;30789;52.030;7.110;2022-10-31T07:47:19;60481.56;;;-143.35
34961;BMP280;30789;52.030;7.110;2022-10-31T07:49:47;60481.56;;;-143.35
34961;BMP280;30789;52.030;7.110;2022-10-31T07:52:14;60481.56;;;-143.35
34961;BMP280;30789;52.030;7.110;2022-10-31T07:54:40;60481.56;;;-143.35
34961;BMP280;30789;52.030;7.110;2022-10-31T07:57:07;60481.56;;;-143.35
34961;BMP280;30789;52.030;7.110;2022-10-31T07:59:33;60481.56;;;-143.35
34961;BMP280;30789;52.030;7.110;2022-10-31T08:02:00;60481.56;;;-143.35
34961;BMP280;30789;52.030;7.110;2022-10-31T08:04:26;60481.56;;;-143.35
34961;BMP280;30789;52.030;7.110;2022-10-31T08:06:54;60481.56;;;-143.35
34961;BMP280;30789;52.030;7.110;2022-10-31T08:09:20;60481.56;;;-143.35
34961;BMP280;30789;52.030;7.110;2022-10-31T08:11:47;60481.56;;;-143.35
34961;BMP280;30789;52.030;7.110;2022-10-31T08:14:13;60481.56;;;-143.35
34961;BMP280;30789;52.030;7.110;2022-10-31T08:16:39;60481.56;;;-143.35
34961;BMP280;30789;52.030;7.110;2022-10-31T08:19:06;60481.56;;;-143.35
34961;BMP280;30789;52.030;7.110;2022-10-31T08:21:32;60481.56;;;-143.35
34961;BMP280;30789;52.030;7.110;2022-10-31T08:24:01;60481.56;;;-143.35
34961;BMP280;30789;52.030;7.110;2022-10-31T08:26:28;60481.56;;;-143.35
34961;BMP280;30789;52.030;7.110;2022-10-31T08:28:54;60481.56;;;-143.35
34961;BMP280;30789;52.030;7.110;2022-10-31T08:31:20;60481.56;;;-143.35
34961;BMP280;30789;52.030;7.110;2022-10-31T08:33:48;60481.56;;;-143.35
34961;BMP280;30789;52.030;7.110;2022-10-31T08:36:14;60481.56;;;-143.35
34961;BMP280;30789;52.030;7.110;2022-10-31T08:38:41;60481.56;;;-143.35
34961;BMP280;30789;52.030;7.110;2022-10-31T08:41:08;60481.56;;;-143.35
34961;BMP280;30789;52.030;7.110;2022-10-31T08:43:35;60481.56;;;-143.35
34961;BMP280;30789;52.030;7.110;2022-10-31T08:46:01;60481.56;;;-143.35
34961;BMP280;30789;52.030;7.110;2022-10-31T08:48:28;60481.56;;;-143.35
34961;BMP280;30789;52.030;7.110;2022-10-31T08:50:56;101199.22;;;12.98
34961;BMP280;30789;52.030;7.110;2022-10-31T08:53:23;101173.22;;;14.16
34961;BMP280;30789;52.030;7.110;2022-10-31T08:55:49;101169.00;;;14.40
34961;BMP280;30789;52.030;7.110;2022-10-31T08:58:18;101171.16;;;14.53
34961;BMP280;30789;52.030;7.110;2022-10-31T09:00:46;101171.56;;;14.68
34961;BMP280;30789;52.030;7.110;2022-10-31T09:03:14;101166.78;;;14.80
34961;BMP280;30789;52.030;7.110;2022-10-31T09:05:41;101166.66;;;14.83
34961;BMP280;30789;52.030;7.110;2022-10-31T09:08:08;101174.41;;;15.10
34961;BMP280;30789;52.030;7.110;2022-10-31T09:10:36;101171.16;;;15.28
34961;BMP280;30789;52.030;7.110;2022-10-31T09:13:04;101173.25;;;15.41
34961;BMP280;30789;52.030;7.110;2022-10-31T09:15:33;101179.41;;;15.39
34961;BMP280;30789;52.030;7.110;2022-10-31T09:18:00;101178.09;;;15.52
34961;BMP280;30789;52.030;7.110;2022-10-31T09:20:27;101172.16;;;15.47
34961;BMP280;30789;52.030;7.110;2022-10-31T09:22:57;101183.72;;;15.63
34961;BMP280;30789;52.030;7.110;2022-10-31T09:25:24;101177.66;;;15.63
34961;BMP280;30789;52.030;7.110;2022-10-31T09:27:51;101176.28;;;15.76
34961;BMP280;30789;52.030;7.110;2022-10-31T09:30:21;101170.50;;;15.91
34961;BMP280;30789;52.030;7.110;2022-10-31T09:32:54;101175.75;;;16.11
34961;BMP280;30789;52.030;7.110;2022-10-31T09:35:23;101179.81;;;16.18
34961;BMP280;30789;52.030;7.110;2022-10-31T09:37:54;101170.28;;;16.39
34961;BMP280;30789;52.030;7.110;2022-10-31T09:40:21;101167.06;;;16.53
34961;BMP280;30789;52.030;7.110;2022-10-31T09:42:54;101163.28;;;16.82
34961;BMP280;30789;52.030;7.110;2022-10-31T09:45:26;101157.31;;;16.98
34961;BMP280;30789;52.030;7.110;2022-10-31T09:48:09;101165.56;;;17.28
34961;BMP280;30789;52.030;7.110;2022-10-31T09:50:41;101157.72;;;17.28
34961;BMP280;30789;52.030;7.110;2022-10-31T09:53:23;101155.94;;;17.68
34961;BMP280;30789;52.030;7.110;2022-10-31T09:55:53;101154.09;;;17.87
34961;BMP280;30789;52.030;7.110;2022-10-31T09:58:23;101152.00;;;17.95
34961;BMP280;30789;52.030;7.110;2022-10-31T10:00:51;101149.31;;;18.14
34961;BMP280;30789;52.030;7.110;2022-10-31T10:03:28;101155.41;;;18.14
34961;BMP280;30789;52.030;7.110;2022-10-31T10:06:04;101146.66;;;18.15
34961;BMP280;30789;52.030;7.110;2022-10-31T10:08:33;101151.09;;;18.13
34961;BMP280;30789;52.030;7.110;2022-10-31T10:11:08;101144.50;;;18.23
34961;BMP280;30789;52.030;7.110;2022-10-31T10:13:53;101146.19;;;18.24
34961;BMP280;30789;52.030;7.110;2022-10-31T10:16:36;101143.47;;;18.09
34961;BMP280;30789;52.030;7.110;2022-10-31T10:19:18;101139.84;;;17.75
34961;BMP280;30789;52.030;7.110;2022-10-31T10:21:53;101136.69;;;17.69
34961;BMP280;30789;52.030;7.110;2022-10-31T10:24:46;101130.63;;;17.68
34961;BMP280;30789;52.030;7.110;2022-10-31T10:27:17;101138.94;;;17.76
34961;BMP280;30789;52.030;7.110;2022-10-31T10:29:50;101130.53;;;17.70
34961;BMP280;30789;52.030;7.110;2022-10-31T10:32:22;101130.13;;;17.60
34961;BMP280;30789;52.030;7.110;2022-10-31T10:34:54;101127.22;;;17.66
34961;BMP280;30789;52.030;7.110;2022-10-31T10:37:28;101119.09;;;17.72
34961;BMP280;30789;52.030;7.110;2022-10-31T10:40:07;101116.03;;;17.63
34961;BMP280;30789;52.030;7.110;2022-10-31T10:42:34;101109.19;;;17.79
34961;BMP280;30789;52.030;7.110;2022-10-31T10:45:19;101113.25;;;17.67
34961;BMP280;30789;52.030;7.110;2022-10-31T10:48:14;101099.34;;;17.84
34961;BMP280;30789;52.030;7.110;2022-10-31T10:50:47;101104.25;;;17.73
34961;BMP280;30789;52.030;7.110;2022-10-31T10:53:27;101094.09;;;17.67
34961;BMP280;30789;52.030;7.110;2022-10-31T10:56:08;101089.97;;;17.80
34961;BMP280;30789;52.030;7.110;2022-10-31T10:58:38;101082.81;;;17.83
34961;BMP280;30789;52.030;7.110;2022-10-31T11:01:10;101082.25;;;17.77
34961;BMP280;30789;52.030;7.110;2022-10-31T11:03:37;101073.25;;;17.82
34961;BMP280;30789;52.030;7.110;2022-10-31T11:06:16;101069.34;;;17.91
34961;BMP280;30789;52.030;7.110;2022-10-31T11:08:45;101060.72;;;17.89
34961;BMP280;30789;52.030;7.110;2022-10-31T11:11:25;101056.28;;;17.91
34961;BMP280;30789;52.030;7.110;2022-10-31T11:13:59;101048.81;;;18.01
34961;BMP280;30789;52.030;7.110;2022-10-31T11:16:31;101043.94;;;17.93
34961;BMP280;30789;52.030;7.110;2022-10-31T11:19:12;101037.28;;;18.05
34961;BMP280;30789;52.030;7.110;2022-10-31T11:21:42;101037.66;;;18.14
34961;BMP280;30789;52.030;7.110;2022-10-31T11:24:14;101034.91;;;18.17
34961;BMP280;30789;52.030;7.110;2022-10-31T11:26:43;101031.97;;;18.23
34961;BMP280;30789;52.030;7.110;2022-10-31T11:29:16;101036.34;;;18.23
34961;BMP280;30789;52.030;7.110;2022-10-31T11:31:45;101024.44;;;18.17
34961;BMP280;30789;52.030;7.110;2022-10-31T11:34:24;101021.72;;;18.02
34961;BMP280;30789;52.030;7.110;2022-10-31T11:36:54;101014.84;;;17.99
34961;BMP280;30789;52.030;7.110;2022-10-31T11:39:24;101008.09;;;17.95
34961;BMP280;30789;52.030;7.110;2022-10-31T11:41:52;101007.25;;;17.77
34961;BMP280;30789;52.030;7.110;2022-10-31T11:44:21;101005.63;;;17.75
34961;BMP280;30789;52.030;7.110;2022-10-31T11:46:49;101000.19;;;17.79
34961;BMP280;30789;52.030;7.110;2022-10-31T11:49:19;101000.03;;;17.82
34961;BMP280;30789;52.030;7.110;2022-10-31T11:51:49;100994.84;;;17.64
34961;BMP280;30789;52.030;7.110;2022-10-31T11:54:22;100994.25;;;17.76
34961;BMP280;30789;52.030;7.110;2022-10-31T11:56:49;100989.72;;;17.79
34961;BMP280;30789;52.030;7.110;2022-10-31T11:59:21;100977.03;;;17.89
34961;BMP280;30789;52.030;7.110;2022-10-31T12:01:50;100959.91;;;17.99
34961;BMP280;30789;52.030;7.110;2022-10-31T12:04:17;100963.88;;;17.91
34961;BMP280;30789;52.030;7.110;2022-10-31T12:06:44;100957.84;;;17.89
34961;BMP280;30789;52.030;7.110;2022-10-31T12:09:21;100944.22;;;17.99
34961;BMP280;30789;52.030;7.110;2022-10-31T12:12:06;100939.47;;;17.90
34961;BMP280;30789;52.030;7.110;2022-10-31T12:14:43;100942.94;;;17.91
34961;BMP280;30789;52.030;7.110;2022-10-31T12:17:15;100950.25;;;17.84
34961;BMP280;30789;52.030;7.110;2022-10-31T12:19:50;100955.25;;;17.89
34961;BMP280;30789;52.030;7.110;2022-10-31T12:22:30;100957.25;;;17.66
34961;BMP280;30789;52.030;7.110;2022-10-31T12:25:21;100955.09;;;17.92
34961;BMP280;30789;52.030;7.110;2022-10-31T12:28:07;100951.63;;;17.91
34961;BMP280;30789;52.030;7.110;2022-10-31T12:30:48;100951.56;;;17.93
34961;BMP280;30789;52.030;7.110;2022-10-31T12:33:43;100952.09;;;17.82
34961;BMP280;30789;52.030;7.110;2022-10-31T12:36:28;100940.94;;;17.78
34961;BMP280;30789;52.030;7.110;2022-10-31T12:39:23;100935.13;;;17.73
34961;BMP280;30789;52.030;7.110;2022-10-31T12:41:52;100921.44;;;17.68
34961;BMP280;30789;52.030;7.110;2022-10-31T12:44:34;100909.63;;;17.60
34961;BMP280;30789;52.030;7.110;2022-10-31T12:50:12;100896.25;;;17.49
34961;BMP280;30789;52.030;7.110;2022-10-31T12:52:51;100897.09;;;17.32
34961;BMP280;30789;52.030;7.110;2022-10-31T12:55:35;100881.31;;;17.33
34961;BMP280;30789;52.030;7.110;2022-10-31T12:58:09;100888.84;;;17.39
34961;BMP280;30789;52.030;7.110;2022-10-31T13:00:38;100890.53;;;17.58
34961;BMP280;30789;52.030;7.110;2022-10-31T13:03:18;100885.63;;;17.69
34961;BMP280;30789;52.030;7.110;2022-10-31T13:05:51;100873.88;;;17.77
34961;BMP280;30789;52.030;7.110;2022-10-31T13:08:22;100874.69;;;17.95
34961;BMP280;30789;52.030;7.110;2022-10-31T13:10:57;100855.59;;;17.93
34961;BMP280;30789;52.030;7.110;2022-10-31T13:13:33;100862.06;;;18.03
34961;BMP280;30789;52.030;7.110;2022-10-31T13:16:04;100854.03;;;18.06
34961;BMP280;30789;52.030;7.110;2022-10-31T13:18:38;100845.19;;;18.24
34961;BMP280;30789;52.030;7.110;2022-10-31T13:21:09;100840.78;;;18.09
34961;BMP280;30789;52.030;7.110;2022-10-31T13:23:39;100828.44;;;18.11
34961;BMP280;30789;52.030;7.110;2022-10-31T13:26:09;100829.47;;;18.09
34961;BMP280;30789;52.030;7.110;2022-10-31T13:28:43;100830.22;;;17.95
34961;BMP280;30789;52.030;7.110;2022-10-31T13:31:11;100828.84;;;17.88
34961;BMP280;30789;52.030;7.110;2022-10-31T13:33:40;100822.16;;;17.82
34961;BMP280;30789;52.030;7.110;2022-10-31T13:36:24;100804.09;;;17.78
34961;BMP280;30789;52.030;7.110;2022-10-31T13:38:54;100803.84;;;17.67
34961;BMP280;30789;52.030;7.110;2022-10-31T13:41:32;100790.06;;;17.63
34961;BMP280;30789;52.030;7.110;2022-10-31T13:44:10;100791.94;;;17.61
34961;BMP280;30789;52.030;7.110;2022-10-31T13:46:40;100785.53;;;17.67
34961;BMP280;30789;52.030;7.110;2022-10-31T13:49:24;100781.66;;;17.57
34961;BMP280;30789;52.030;7.110;2022-10-31T13:51:51;100782.31;;;17.62
34961;BMP280;30789;52.030;7.110;2022-10-31T13:54:23;100782.22;;;17.63
34961;BMP280;30789;52.030;7.110;2022-10-31T13:56:57;100780.91;;;17.55
34961;BMP280;30789;52.030;7.110;2022-10-31T13:59:27;100768.44;;;17.60
34961;BMP280;30789;52.030;7.110;2022-10-31T14:01:55;100772.47;;;17.50
34961;BMP280;30789;52.030;7.110;2022-10-31T14:04:24;100764.94;;;17.61
34961;BMP280;30789;52.030;7.110;2022-10-31T14:06:55;100763.34;;;17.57
34961;BMP280;30789;52.030;7.110;2022-10-31T14:09:28;100751.22;;;17.56
34961;BMP280;30789;52.030;7.110;2022-10-31T14:11:57;100741.69;;;17.55